createdAt,value
2022-11-28T00:02:11.029Z,6.00
2022-11-28T00:04:59.110Z,6.10
2022-11-28T00:07:46.035Z,6.20
2022-11-28T00:10:33.036Z,6.20
2022-11-28T00:13:19.429Z,6.40
2022-11-28T00:16:07.705Z,6.50
2022-11-28T00:18:57.463Z,6.40
2022-11-28T00:21:45.721Z,6.50
2022-11-28T00:24:32.429Z,6.40
2022-11-28T00:27:18.808Z,6.30
2022-11-28T00:30:06.746Z,6.20
2022-11-28T00:32:53.458Z,6.10
2022-11-28T00:35:39.777Z,5.90
2022-11-28T00:38:28.271Z,5.80
2022-11-28T00:41:16.361Z,5.60
2022-11-28T00:44:03.220Z,5.40
2022-11-28T00:46:49.718Z,5.40
2022-11-28T00:49:36.278Z,5.40
2022-11-28T00:52:22.602Z,5.50
2022-11-28T00:55:10.893Z,5.70
2022-11-28T00:57:57.502Z,5.80
2022-11-28T01:00:43.881Z,5.90
2022-11-28T01:03:30.709Z,5.90
2022-11-28T01:06:23.221Z,6.10
2022-11-28T01:09:12.366Z,6.00
2022-11-28T01:12:00.169Z,6.00
2022-11-28T01:14:46.531Z,5.80
2022-11-28T01:17:32.803Z,5.90
2022-11-28T01:20:19.451Z,5.90
2022-11-28T01:23:05.807Z,6.00
2022-11-28T01:25:52.196Z,5.90
2022-11-28T01:28:39.834Z,6.00
2022-11-28T01:31:28.689Z,6.00
2022-11-28T01:34:15.377Z,6.10
2022-11-28T01:37:01.665Z,6.10
2022-11-28T01:39:48.461Z,6.00
2022-11-28T01:42:34.921Z,6.10
2022-11-28T01:45:26.440Z,6.10
2022-11-28T01:48:16.724Z,6.10
2022-11-28T01:51:07.062Z,5.90
2022-11-28T01:53:54.399Z,5.90
2022-11-28T01:56:46.946Z,5.80
2022-11-28T01:59:38.078Z,5.90
2022-11-28T02:02:30.471Z,5.90
2022-11-28T02:05:18.690Z,5.70
2022-11-28T02:08:05.328Z,5.50
2022-11-28T02:11:07.326Z,5.50
2022-11-28T02:14:04.422Z,5.60
2022-11-28T02:17:05.905Z,5.40
2022-11-28T02:20:25.235Z,5.50
2022-11-28T02:23:16.586Z,5.60
2022-11-28T02:26:27.624Z,5.70
2022-11-28T02:29:44.448Z,5.50
2022-11-28T02:32:44.430Z,5.60
2022-11-28T02:35:36.943Z,5.70
2022-11-28T02:38:32.746Z,5.90
2022-11-28T02:41:27.792Z,6.00
2022-11-28T02:44:18.607Z,5.80
2022-11-28T02:47:09.680Z,5.80
2022-11-28T02:50:03.230Z,5.70
2022-11-28T02:52:52.591Z,5.60
2022-11-28T02:55:41.147Z,5.50
2022-11-28T02:58:27.826Z,5.60
2022-11-28T03:01:21.549Z,5.70
2022-11-28T03:04:19.242Z,5.80
2022-11-28T03:07:16.575Z,5.70
2022-11-28T03:10:19.757Z,5.60
2022-11-28T03:13:12.658Z,5.50
2022-11-28T03:16:07.176Z,5.30
2022-11-28T03:19:02.905Z,5.10
2022-11-28T03:21:58.699Z,5.20
2022-11-28T03:24:50.013Z,5.30
2022-11-28T03:27:39.734Z,5.30
2022-11-28T03:30:31.017Z,5.20
2022-11-28T03:33:21.250Z,5.30
2022-11-28T03:36:12.663Z,5.30
2022-11-28T03:39:04.333Z,5.40
2022-11-28T03:41:56.763Z,5.50
2022-11-28T03:44:48.944Z,5.60
2022-11-28T03:47:40.273Z,5.60
2022-11-28T03:50:32.907Z,5.60
2022-11-28T03:53:23.865Z,5.50
2022-11-28T03:56:15.860Z,5.60
2022-11-28T03:59:08.647Z,5.70
2022-11-28T04:01:58.692Z,5.60
2022-11-28T04:04:53.617Z,5.50
2022-11-28T04:07:45.715Z,5.60
2022-11-28T04:10:36.818Z,5.70
2022-11-28T04:13:25.341Z,5.80
2022-11-28T04:16:19.887Z,5.60
2022-11-28T04:19:14.276Z,5.50
2022-11-28T04:22:04.061Z,5.50
2022-11-28T04:24:54.812Z,5.40
2022-11-28T04:27:45.099Z,5.10
2022-11-28T04:30:31.602Z,5.00
2022-11-28T04:33:22.685Z,4.90
2022-11-28T04:36:11.038Z,5.00
2022-11-28T04:38:59.820Z,5.10
2022-11-28T04:41:52.339Z,5.10
2022-11-28T04:44:47.378Z,5.20
2022-11-28T04:47:34.157Z,5.20
2022-11-28T04:50:24.548Z,5.10
2022-11-28T04:53:15.529Z,5.00
2022-11-28T04:56:06.025Z,5.10
2022-11-28T04:58:52.462Z,5.20
2022-11-28T05:01:42.331Z,5.30
2022-11-28T05:04:29.185Z,5.40
2022-11-28T05:07:19.615Z,5.40
2022-11-28T05:10:07.758Z,5.20
2022-11-28T05:12:54.311Z,5.10
2022-11-28T05:15:40.950Z,5.00
2022-11-28T05:18:27.458Z,5.20
2022-11-28T05:21:14.216Z,5.00
2022-11-28T05:24:02.047Z,4.90
2022-11-28T05:26:48.297Z,4.90
2022-11-28T05:29:34.917Z,4.80
2022-11-28T05:32:21.385Z,4.70
2022-11-28T05:35:08.182Z,4.80
2022-11-28T05:37:54.496Z,4.90
2022-11-28T05:40:44.453Z,4.70
2022-11-28T05:43:31.993Z,4.80
2022-11-28T05:46:18.725Z,4.80
2022-11-28T05:49:05.250Z,4.70
2022-11-28T05:51:51.666Z,4.60
2022-11-28T05:54:38.186Z,4.60
2022-11-28T05:57:26.096Z,4.60
2022-11-28T06:00:14.349Z,4.50
2022-11-28T06:03:01.828Z,4.60
2022-11-28T06:05:48.516Z,4.40
2022-11-28T06:08:35.353Z,4.30
2022-11-28T06:11:23.348Z,4.30
2022-11-28T06:14:11.610Z,4.20
2022-11-28T06:16:57.986Z,4.30
2022-11-28T06:19:45.163Z,4.30
2022-11-28T06:22:31.995Z,4.40
2022-11-28T06:25:18.491Z,4.60
2022-11-28T06:28:05.051Z,4.70
2022-11-28T06:30:53.087Z,4.70
2022-11-28T06:33:39.610Z,4.70
2022-11-28T06:36:26.945Z,4.80
2022-11-28T06:39:15.612Z,4.90
2022-11-28T06:42:01.914Z,4.90
2022-11-28T06:44:48.321Z,4.90
2022-11-28T06:47:36.211Z,5.00
2022-11-28T06:50:22.489Z,5.20
2022-11-28T06:53:09.019Z,5.40
2022-11-28T06:55:55.557Z,5.50
2022-11-28T06:58:42.587Z,5.50
2022-11-28T07:01:32.038Z,5.50
2022-11-28T07:04:19.926Z,5.50
2022-11-28T07:07:06.236Z,5.50
2022-11-28T07:09:53.399Z,5.40
2022-11-28T07:12:40.448Z,5.50
2022-11-28T07:15:27.570Z,5.50
2022-11-28T07:18:14.272Z,5.30
2022-11-28T07:21:02.416Z,5.20
2022-11-28T07:23:49.430Z,5.10
2022-11-28T07:26:37.830Z,4.90
2022-11-28T07:29:24.800Z,4.80
2022-11-28T07:32:11.420Z,4.80
2022-11-28T07:34:58.155Z,4.60
2022-11-28T07:37:45.990Z,4.60
2022-11-28T07:40:32.622Z,4.50
2022-11-28T07:43:19.201Z,4.70
2022-11-28T07:46:07.440Z,4.80
2022-11-28T07:48:54.757Z,4.70
2022-11-28T07:51:41.781Z,4.90
2022-11-28T07:54:29.777Z,5.00
2022-11-28T07:57:16.358Z,5.10
2022-11-28T08:00:03.299Z,5.00
2022-11-28T08:02:58.952Z,5.10
2022-11-28T08:05:49.466Z,5.00
2022-11-28T08:08:36.305Z,5.20
2022-11-28T08:11:26.789Z,5.30
2022-11-28T08:14:14.204Z,5.40
2022-11-28T08:17:00.498Z,5.50
2022-11-28T08:19:47.450Z,5.50
2022-11-28T08:22:33.872Z,5.40
2022-11-28T08:25:20.245Z,5.50
2022-11-28T08:28:07.946Z,5.50
2022-11-28T08:30:54.913Z,5.60
2022-11-28T08:33:42.291Z,5.60
2022-11-28T08:36:29.634Z,5.60
2022-11-28T08:39:24.918Z,5.30
2022-11-28T08:42:11.856Z,5.30
2022-11-28T08:44:59.465Z,5.40
2022-11-28T08:47:45.830Z,5.50
2022-11-28T08:50:32.366Z,5.50
2022-11-28T08:53:19.010Z,5.70
2022-11-28T08:56:05.925Z,5.70
2022-11-28T08:58:52.350Z,5.80
2022-11-28T09:01:40.535Z,5.60
2022-11-28T09:04:27.543Z,5.60
2022-11-28T09:07:14.232Z,5.70
2022-11-28T09:10:00.884Z,5.80
2022-11-28T09:12:47.310Z,5.90
2022-11-28T09:15:34.105Z,6.10
2022-11-28T09:18:21.818Z,6.30
2022-11-28T09:21:11.462Z,6.40
2022-11-28T09:23:57.960Z,6.50
2022-11-28T09:26:44.371Z,6.50
2022-11-28T09:29:30.880Z,6.60
2022-11-28T09:32:17.563Z,6.60
2022-11-28T09:35:05.993Z,6.70
2022-11-28T09:37:52.598Z,6.70
2022-11-28T09:40:41.530Z,6.80
2022-11-28T09:43:32.510Z,6.80
2022-11-28T09:46:27.759Z,6.90
2022-11-28T09:49:24.941Z,7.10
2022-11-28T09:52:33.725Z,7.10
2022-11-28T09:55:27.987Z,7.10
2022-11-28T09:58:19.733Z,7.20
2022-11-28T10:01:14.046Z,7.20
2022-11-28T10:04:05.292Z,7.30
2022-11-28T10:06:58.487Z,7.30
2022-11-28T10:09:55.915Z,7.50
2022-11-28T10:12:52.410Z,7.50
2022-11-28T10:15:49.159Z,7.60
2022-11-28T10:18:40.895Z,7.60
2022-11-28T10:21:33.759Z,7.60
2022-11-28T10:24:24.190Z,7.70
2022-11-28T10:27:15.341Z,7.70
2022-11-28T10:30:06.008Z,7.70
2022-11-28T10:33:04.861Z,7.80
2022-11-28T10:35:56.006Z,7.80
2022-11-28T10:38:42.689Z,7.80
2022-11-28T10:41:33.644Z,7.80
2022-11-28T10:44:28.683Z,7.70
2022-11-28T10:47:24.772Z,7.40
2022-11-28T10:50:21.151Z,7.40
2022-11-28T10:53:16.987Z,7.40
2022-11-28T10:56:12.200Z,7.40
2022-11-28T10:59:03.708Z,7.40
2022-11-28T11:01:53.043Z,7.50
2022-11-28T11:04:40.385Z,7.40
2022-11-28T11:07:31.989Z,7.30
2022-11-28T11:10:23.643Z,7.40
2022-11-28T11:13:17.239Z,7.30
2022-11-28T11:16:07.061Z,7.20
2022-11-28T11:18:56.288Z,7.10
2022-11-28T11:22:03.888Z,7.00
2022-11-28T11:25:07.173Z,7.10
2022-11-28T11:27:55.464Z,7.10
2022-11-28T11:30:42.840Z,7.20
2022-11-28T11:33:34.367Z,7.30
2022-11-28T11:36:29.422Z,7.50
2022-11-28T11:39:21.942Z,7.60
2022-11-28T11:42:13.252Z,7.80
2022-11-28T11:45:30.458Z,8.00
2022-11-28T11:48:17.055Z,8.20
2022-11-28T11:51:03.394Z,8.40
2022-11-28T11:54:01.353Z,8.50
2022-11-28T11:57:00.688Z,8.60
2022-11-28T11:59:59.772Z,8.70
2022-11-28T12:02:50.294Z,8.80
2022-11-28T12:06:12.595Z,8.90
2022-11-28T12:09:05.597Z,9.00
2022-11-28T12:11:57.456Z,8.90
2022-11-28T12:14:44.913Z,8.90
2022-11-28T12:17:48.895Z,8.90
2022-11-28T12:20:49.005Z,9.00
2022-11-28T12:23:48.919Z,9.00
2022-11-28T12:26:43.258Z,8.70
2022-11-28T12:29:44.221Z,8.60
2022-11-28T12:32:41.353Z,8.70
2022-11-28T12:35:38.650Z,8.90
2022-11-28T12:38:37.455Z,8.90
2022-11-28T12:41:47.295Z,8.80
2022-11-28T12:44:48.383Z,8.90
2022-11-28T12:47:45.140Z,8.90
2022-11-28T12:50:35.172Z,8.80
2022-11-28T12:53:45.426Z,8.70
2022-11-28T12:56:48.659Z,8.70
2022-11-28T12:59:43.394Z,8.70
2022-11-28T13:02:39.855Z,8.60
2022-11-28T13:05:36.710Z,8.60
2022-11-28T13:08:49.387Z,8.60
2022-11-28T13:11:53.354Z,8.70
2022-11-28T13:14:49.874Z,8.70
2022-11-28T13:17:45.060Z,8.80
2022-11-28T13:20:38.926Z,8.90
2022-11-28T13:23:28.546Z,8.90
2022-11-28T13:26:34.192Z,9.00
2022-11-28T13:29:32.575Z,9.00
2022-11-28T13:32:28.660Z,9.00
2022-11-28T13:35:16.306Z,9.00
2022-11-28T13:41:53.336Z,9.00
2022-11-28T13:44:38.063Z,9.00
2022-11-28T13:47:31.394Z,9.00
2022-11-28T13:50:39.217Z,9.00
2022-11-28T13:53:26.407Z,8.90
2022-11-28T13:56:26.346Z,8.90
2022-11-28T13:59:19.588Z,8.80
2022-11-28T14:02:24.074Z,8.80
2022-11-28T14:05:28.189Z,8.70
2022-11-28T14:08:29.218Z,8.80
2022-11-28T14:11:49.637Z,8.70
2022-11-28T14:14:51.871Z,8.80
2022-11-28T14:18:00.508Z,8.80
2022-11-28T14:20:56.045Z,8.90
2022-11-28T14:23:47.531Z,8.80
2022-11-28T14:26:36.695Z,8.80
2022-11-28T14:29:28.000Z,8.80
2022-11-28T14:32:30.617Z,8.70
2022-11-28T14:36:01.753Z,8.80
2022-11-28T14:39:06.147Z,8.70
2022-11-28T14:42:51.799Z,8.80
2022-11-28T14:45:45.167Z,8.70
2022-11-28T14:48:32.145Z,8.70
2022-11-28T14:51:20.467Z,8.70
2022-11-28T14:54:21.948Z,8.60
2022-11-28T14:57:14.230Z,8.70
2022-11-28T15:00:07.684Z,8.70
2022-11-28T15:03:11.037Z,8.60
2022-11-28T15:06:02.242Z,8.60
2022-11-28T15:09:04.274Z,8.60
2022-11-28T15:12:11.790Z,8.50
2022-11-28T15:14:59.426Z,8.50
2022-11-28T15:17:49.627Z,8.50
2022-11-28T15:20:42.384Z,8.40
2022-11-28T15:23:32.180Z,8.40
2022-11-28T15:26:22.207Z,8.40
2022-11-28T15:29:10.416Z,8.30
2022-11-28T15:31:59.103Z,8.30
2022-11-28T15:34:52.019Z,8.30
2022-11-28T15:37:39.327Z,8.30
2022-11-28T15:40:30.135Z,8.30
2022-11-28T15:43:19.070Z,8.40
2022-11-28T15:46:07.916Z,8.40
2022-11-28T15:48:54.754Z,8.40
2022-11-28T15:51:41.532Z,8.50
2022-11-28T15:54:37.578Z,8.50
2022-11-28T15:57:28.439Z,8.60
2022-11-28T16:00:18.808Z,8.60
2022-11-28T16:03:06.894Z,8.60
2022-11-28T16:05:56.933Z,8.70
2022-11-28T16:08:50.721Z,8.70
2022-11-28T16:11:37.720Z,8.70
2022-11-28T16:14:28.246Z,8.70
2022-11-28T16:17:21.582Z,8.70
2022-11-28T16:20:20.629Z,8.60
2022-11-28T16:23:10.300Z,8.40
2022-11-28T16:26:01.229Z,8.40
2022-11-28T16:28:59.727Z,8.30
2022-11-28T16:31:47.697Z,8.30
2022-11-28T16:34:50.327Z,8.30
2022-11-28T16:37:37.027Z,8.30
2022-11-28T16:40:24.942Z,8.30
2022-11-28T16:43:22.131Z,8.40
2022-11-28T16:46:17.849Z,8.30
2022-11-28T16:49:07.043Z,8.30
2022-11-28T16:52:29.485Z,8.40
2022-11-28T16:55:46.160Z,8.30
2022-11-28T16:58:32.833Z,8.30
2022-11-28T17:01:19.760Z,8.40
2022-11-28T17:04:06.963Z,8.40
2022-11-28T17:06:55.859Z,8.50
2022-11-28T17:09:43.499Z,8.60
2022-11-28T17:12:34.549Z,8.60
2022-11-28T17:15:23.567Z,8.40
2022-11-28T17:18:10.266Z,8.40
2022-11-28T17:20:56.627Z,8.50
2022-11-28T17:23:43.593Z,8.60
2022-11-28T17:26:30.113Z,8.60
2022-11-28T17:29:18.406Z,8.60
2022-11-28T17:32:05.279Z,8.50
2022-11-28T17:34:52.151Z,8.50
2022-11-28T17:37:38.670Z,8.60
2022-11-28T17:40:38.588Z,8.60
2022-11-28T17:43:25.001Z,8.70
2022-11-28T17:46:13.583Z,8.70
2022-11-28T17:49:01.100Z,8.60
2022-11-28T17:51:47.466Z,8.70
2022-11-28T17:54:34.977Z,8.50
2022-11-28T17:57:21.899Z,8.30
2022-11-28T18:00:09.918Z,8.20
2022-11-28T18:03:05.302Z,8.20
2022-11-28T18:05:52.351Z,8.20
2022-11-28T18:08:38.652Z,8.10
2022-11-28T18:11:26.530Z,8.10
2022-11-28T18:14:14.065Z,8.10
2022-11-28T18:17:01.021Z,8.00
2022-11-28T18:19:52.122Z,8.10
2022-11-28T18:22:42.721Z,8.30
2022-11-28T18:25:29.880Z,8.40
2022-11-28T18:28:18.975Z,8.40
2022-11-28T18:31:11.354Z,8.30
2022-11-28T18:34:02.648Z,8.40
2022-11-28T18:37:00.091Z,8.50
2022-11-28T18:39:50.906Z,8.60
2022-11-28T18:42:37.682Z,8.60
2022-11-28T18:45:24.286Z,8.60
2022-11-28T18:48:11.602Z,8.70
2022-11-28T18:50:57.990Z,8.70
2022-11-28T18:53:47.382Z,8.80
2022-11-28T18:56:35.118Z,8.70
2022-11-28T18:59:22.278Z,8.80
2022-11-28T19:02:09.125Z,8.90
2022-11-28T19:04:56.249Z,8.80
2022-11-28T19:07:43.252Z,8.70
2022-11-28T19:10:31.147Z,8.70
2022-11-28T19:13:17.858Z,8.80
2022-11-28T19:16:06.363Z,8.80
2022-11-28T19:18:53.655Z,8.80
2022-11-28T19:21:40.881Z,8.90
2022-11-28T19:24:27.776Z,8.90
2022-11-28T19:27:15.573Z,9.00
2022-11-28T19:30:02.548Z,8.90
2022-11-28T19:32:48.924Z,8.90
2022-11-28T19:35:35.647Z,9.00
2022-11-28T19:38:22.629Z,8.90
2022-11-28T19:41:11.546Z,9.00
2022-11-28T19:43:59.279Z,9.00
2022-11-28T19:46:48.092Z,9.00
2022-11-28T19:49:34.555Z,9.00
2022-11-28T19:52:21.854Z,9.00
2022-11-28T19:55:09.263Z,9.00
2022-11-28T19:57:55.878Z,9.00
2022-11-28T20:00:45.391Z,9.00
2022-11-28T20:03:33.823Z,9.00
2022-11-28T20:06:22.045Z,9.00
2022-11-28T20:09:11.451Z,8.80
2022-11-28T20:12:01.498Z,8.90
2022-11-28T20:14:50.354Z,8.70
2022-11-28T20:17:38.706Z,8.70
2022-11-28T20:20:25.788Z,8.70
2022-11-28T20:23:12.876Z,8.70
2022-11-28T20:26:04.085Z,8.80
2022-11-28T20:28:51.540Z,8.60
2022-11-28T20:31:41.891Z,8.60
2022-11-28T20:34:30.407Z,8.50
2022-11-28T20:37:19.305Z,8.50
2022-11-28T20:40:06.589Z,8.50
2022-11-28T20:42:53.340Z,8.50
2022-11-28T20:45:39.767Z,8.50
2022-11-28T20:48:26.093Z,8.60
2022-11-28T20:51:16.306Z,8.50
2022-11-28T20:54:04.713Z,8.50
2022-11-28T20:57:19.705Z,8.50
2022-11-28T20:59:58.105Z,8.50
2022-11-28T21:02:46.162Z,8.40
2022-11-28T21:05:36.024Z,8.50
2022-11-28T21:08:24.146Z,8.40
2022-11-28T21:11:30.597Z,8.40
2022-11-28T21:14:20.467Z,8.40
2022-11-28T21:17:06.910Z,8.50
2022-11-28T21:19:53.146Z,8.50
2022-11-28T21:22:39.475Z,8.60
2022-11-28T21:25:27.198Z,8.60
2022-11-28T21:28:14.311Z,8.70
2022-11-28T21:31:04.964Z,8.80
2022-11-28T21:33:51.890Z,8.80
2022-11-28T21:36:38.294Z,8.80
2022-11-28T21:39:24.650Z,8.80
2022-11-28T21:42:17.430Z,8.90
2022-11-28T21:45:07.753Z,8.90
2022-11-28T21:47:54.171Z,8.90
2022-11-28T21:50:46.691Z,8.90
2022-11-28T21:53:34.689Z,9.00
2022-11-28T21:56:22.006Z,9.00
2022-11-28T21:59:10.445Z,8.90
2022-11-28T22:01:59.031Z,9.00
2022-11-28T22:04:46.361Z,8.90
2022-11-28T22:07:35.198Z,9.00
2022-11-28T22:10:24.826Z,9.00
2022-11-28T22:13:11.504Z,8.90
2022-11-28T22:15:59.439Z,8.90
2022-11-28T22:18:46.758Z,8.90
2022-11-28T22:24:40.567Z,8.90
2022-11-28T22:27:31.390Z,8.90
2022-11-28T22:30:18.563Z,8.80
2022-11-28T22:33:07.007Z,8.80
2022-11-28T22:35:53.409Z,8.80
2022-11-28T22:38:41.189Z,8.90
2022-11-28T22:41:29.579Z,8.90
2022-11-28T22:44:18.171Z,9.00
2022-11-28T22:47:06.311Z,8.90
2022-11-28T22:49:54.340Z,8.90
2022-11-28T22:52:41.346Z,9.00
2022-11-28T22:55:27.897Z,8.90
2022-11-28T22:58:15.080Z,8.90
2022-11-28T23:01:01.854Z,8.90
2022-11-28T23:03:49.443Z,8.90
2022-11-28T23:06:37.435Z,8.90
2022-11-28T23:09:24.325Z,8.90
2022-11-28T23:12:11.652Z,8.80
2022-11-28T23:14:58.072Z,8.80
2022-11-28T23:17:44.471Z,8.70
2022-11-28T23:20:31.763Z,8.80
2022-11-28T23:23:19.471Z,8.80
2022-11-28T23:26:07.141Z,8.90
2022-11-28T23:28:54.155Z,8.90
2022-11-28T23:31:43.284Z,9.00
2022-11-28T23:34:30.536Z,8.90
2022-11-28T23:37:18.936Z,8.90
2022-11-28T23:40:08.314Z,8.90
2022-11-28T23:42:54.865Z,8.90
2022-11-28T23:45:41.155Z,8.90
2022-11-28T23:48:28.013Z,8.90
2022-11-28T23:51:15.528Z,8.80
2022-11-28T23:54:02.196Z,8.70
2022-11-28T23:56:49.822Z,8.70
2022-11-28T23:59:36.323Z,8.80
